createdAt,value
2023-03-22T00:00:39.687Z,100170.56
2023-03-22T00:01:43.223Z,100174.09
2023-03-22T00:02:45.913Z,100172.41
2023-03-22T00:03:50.244Z,100167.03
2023-03-22T00:04:53.379Z,100175.94
2023-03-22T00:05:59.009Z,100166.03
2023-03-22T00:07:01.577Z,100171.56
2023-03-22T00:08:07.105Z,100167.16
2023-03-22T00:09:09.603Z,100161.78
2023-03-22T00:10:12.195Z,100177.03
2023-03-22T00:11:14.807Z,100174.50
2023-03-22T00:12:17.295Z,100175.34
2023-03-22T00:13:19.864Z,100170.13
2023-03-22T00:14:22.363Z,100175.50
2023-03-22T00:15:24.837Z,100167.75
2023-03-22T00:16:27.475Z,100170.28
2023-03-22T00:17:30.790Z,100178.34
2023-03-22T00:18:33.375Z,100163.22
2023-03-22T00:19:35.862Z,100169.44
2023-03-22T00:20:40.392Z,100164.06
2023-03-22T00:21:43.183Z,100171.28
2023-03-22T00:22:46.221Z,100163.22
2023-03-22T00:23:48.766Z,100165.16
2023-03-22T00:24:51.262Z,100157.00
2023-03-22T00:25:55.062Z,100164.06
2023-03-22T00:26:58.673Z,100160.78
2023-03-22T00:28:01.196Z,100161.63
2023-03-22T00:29:03.945Z,100159.25
2023-03-22T00:30:07.140Z,100164.31
2023-03-22T00:31:10.759Z,100164.47
2023-03-22T00:32:13.298Z,100165.16
2023-03-22T00:33:15.934Z,100162.63
2023-03-22T00:34:18.449Z,100163.47
2023-03-22T00:35:21.063Z,100162.78
2023-03-22T00:36:23.836Z,100157.56
2023-03-22T00:37:27.932Z,100161.94
2023-03-22T00:38:42.487Z,100160.09
2023-03-22T00:39:45.956Z,100153.88
2023-03-22T00:40:48.491Z,100144.00
2023-03-22T00:41:51.528Z,100152.03
2023-03-22T00:42:54.595Z,100155.72
2023-03-22T00:43:57.195Z,100156.56
2023-03-22T00:44:59.699Z,100146.81
2023-03-22T00:46:02.781Z,100144.13
2023-03-22T00:47:05.463Z,100142.28
2023-03-22T00:48:09.682Z,100153.03
2023-03-22T00:49:12.474Z,100153.03
2023-03-22T00:50:14.978Z,100145.13
2023-03-22T00:51:18.146Z,100146.81
2023-03-22T00:52:21.629Z,100138.88
2023-03-22T00:53:24.485Z,100135.34
2023-03-22T00:54:27.000Z,100137.19
2023-03-22T00:55:29.531Z,100139.03
2023-03-22T00:56:34.026Z,100139.03
2023-03-22T00:57:44.289Z,100146.25
2023-03-22T00:58:46.815Z,100144.56
2023-03-22T00:59:49.637Z,100140.88
2023-03-22T01:00:52.189Z,100137.34
2023-03-22T01:01:56.656Z,100137.66
2023-03-22T01:03:04.720Z,100146.41
2023-03-22T01:04:07.455Z,100138.63
2023-03-22T01:05:15.733Z,100149.06
2023-03-22T01:06:18.792Z,100144.69
2023-03-22T01:07:24.071Z,100145.53
2023-03-22T01:08:32.940Z,100147.38
2023-03-22T01:09:35.687Z,100140.31
2023-03-22T01:10:40.314Z,100142.16
2023-03-22T01:11:43.810Z,100148.53
2023-03-22T01:12:46.691Z,100153.03
2023-03-22T01:13:49.721Z,100144.84
2023-03-22T01:14:52.236Z,100134.97
2023-03-22T01:15:54.927Z,100141.31
2023-03-22T01:16:57.778Z,100144.00
2023-03-22T01:18:00.880Z,100136.78
2023-03-22T01:19:03.639Z,100144.00
2023-03-22T01:20:07.292Z,100142.16
2023-03-22T01:21:10.455Z,100137.66
2023-03-22T01:22:12.997Z,100133.25
2023-03-22T01:23:15.956Z,100141.31
2023-03-22T01:24:18.550Z,100135.94
2023-03-22T01:25:21.491Z,100141.31
2023-03-22T01:26:23.953Z,100137.78
2023-03-22T01:27:26.499Z,100146.69
2023-03-22T01:28:29.657Z,100149.38
2023-03-22T01:29:32.562Z,100139.59
2023-03-22T01:30:35.433Z,100144.84
2023-03-22T01:31:38.049Z,100150.50
2023-03-22T01:32:40.807Z,100151.34
2023-03-22T01:33:43.608Z,100155.84
2023-03-22T01:34:46.139Z,100153.31
2023-03-22T01:35:48.905Z,100150.63
2023-03-22T01:36:51.595Z,100151.63
2023-03-22T01:37:54.746Z,100147.25
2023-03-22T01:38:57.556Z,100146.25
2023-03-22T01:40:00.593Z,100144.56
2023-03-22T01:41:03.735Z,100151.78
2023-03-22T01:42:15.939Z,100143.72
2023-03-22T01:43:18.887Z,100152.63
2023-03-22T01:44:24.212Z,100145.56
2023-03-22T01:45:39.492Z,100146.53
2023-03-22T01:46:44.506Z,100143.84
2023-03-22T01:48:17.658Z,100147.53
2023-03-22T01:49:34.435Z,100140.47
2023-03-22T01:50:39.657Z,100144.00
2023-03-22T01:51:45.388Z,100153.03
2023-03-22T01:52:56.721Z,100159.25
2023-03-22T01:54:09.569Z,100154.88
2023-03-22T01:55:13.108Z,100157.56
2023-03-22T01:56:23.693Z,100160.25
2023-03-22T01:57:26.685Z,100153.88
2023-03-22T01:58:30.171Z,100163.78
2023-03-22T01:59:36.844Z,100153.19
2023-03-22T02:00:51.488Z,100155.03
2023-03-22T02:02:20.349Z,100148.66
2023-03-22T02:03:44.988Z,100149.66
2023-03-22T02:04:57.843Z,100155.03
2023-03-22T02:06:03.134Z,100154.03
2023-03-22T02:07:10.276Z,100154.19
2023-03-22T02:08:14.958Z,100161.25
2023-03-22T02:09:44.011Z,100155.88
2023-03-22T02:10:47.425Z,100161.25
2023-03-22T02:12:06.039Z,100163.22
2023-03-22T02:13:18.872Z,100156.88
2023-03-22T02:14:46.825Z,100159.69
2023-03-22T02:15:57.546Z,100162.50
2023-03-22T02:17:28.730Z,100161.66
2023-03-22T02:19:04.290Z,100167.84
2023-03-22T02:20:10.901Z,100162.78
2023-03-22T02:21:19.435Z,100156.44
2023-03-22T02:22:46.542Z,100166.16
2023-03-22T02:24:19.545Z,100165.47
2023-03-22T02:25:54.299Z,100157.41
2023-03-22T02:27:24.099Z,100161.94
2023-03-22T02:28:33.581Z,100166.47
2023-03-22T02:29:56.512Z,100156.72
2023-03-22T02:31:10.669Z,100150.63
2023-03-22T02:32:46.089Z,100152.47
2023-03-22T02:34:23.729Z,100147.94
2023-03-22T02:35:47.720Z,100152.47
2023-03-22T02:37:11.527Z,100156.00
2023-03-22T02:38:47.592Z,100148.94
2023-03-22T02:40:07.594Z,100151.63
2023-03-22T02:41:19.781Z,100139.19
2023-03-22T02:42:27.524Z,100148.94
2023-03-22T02:43:46.290Z,100142.72
2023-03-22T02:45:09.780Z,100141.88
2023-03-22T02:46:18.081Z,100144.56
2023-03-22T02:47:34.306Z,100149.94
2023-03-22T02:49:07.757Z,100154.31
2023-03-22T02:50:13.234Z,100152.47
2023-03-22T02:51:26.171Z,100152.59
2023-03-22T02:52:40.375Z,100154.59
2023-03-22T02:53:53.040Z,100155.44
2023-03-22T02:55:22.742Z,100155.44
2023-03-22T02:56:46.947Z,100140.31
2023-03-22T02:58:03.106Z,100150.22
2023-03-22T02:59:08.418Z,100137.75
2023-03-22T03:00:16.811Z,100144.13
2023-03-22T03:01:28.319Z,100148.50
2023-03-22T03:02:33.430Z,100155.84
2023-03-22T03:03:39.665Z,100156.69
2023-03-22T03:04:49.977Z,100171.94
2023-03-22T03:06:01.483Z,100178.16
2023-03-22T03:07:12.086Z,100188.06
2023-03-22T03:08:18.099Z,100195.25
2023-03-22T03:09:21.767Z,100193.41
2023-03-22T03:10:25.956Z,100192.56
2023-03-22T03:11:29.062Z,100190.88
2023-03-22T03:12:31.654Z,100187.34
2023-03-22T03:13:34.126Z,100188.19
2023-03-22T03:14:36.614Z,100191.72
2023-03-22T03:15:43.956Z,100196.09
2023-03-22T03:16:55.309Z,100194.56
2023-03-22T03:18:07.268Z,100196.53
2023-03-22T03:19:33.285Z,100183.81
2023-03-22T03:20:49.479Z,100196.38
2023-03-22T03:22:13.497Z,100196.38
2023-03-22T03:23:33.990Z,100197.25
2023-03-22T03:24:57.287Z,100200.78
2023-03-22T03:26:33.407Z,100205.44
2023-03-22T03:27:49.809Z,100200.06
2023-03-22T03:28:57.988Z,100200.06
2023-03-22T03:30:02.445Z,100200.06
2023-03-22T03:31:29.387Z,100202.59
2023-03-22T03:32:47.945Z,100202.75
2023-03-22T03:34:10.636Z,100200.06
2023-03-22T03:35:22.635Z,100200.06
2023-03-22T03:36:27.348Z,100194.81
2023-03-22T03:37:37.901Z,100198.50
2023-03-22T03:38:48.520Z,100190.44
2023-03-22T03:40:09.782Z,100186.91
2023-03-22T03:41:24.087Z,100183.53
2023-03-22T03:42:29.994Z,100190.72
2023-03-22T03:43:34.763Z,100188.91
2023-03-22T03:44:39.590Z,100195.94
2023-03-22T03:45:42.683Z,100199.63
2023-03-22T03:46:46.616Z,100208.66
2023-03-22T03:47:56.881Z,100214.88
2023-03-22T03:48:59.723Z,100208.66
2023-03-22T03:50:04.354Z,100213.03
2023-03-22T03:51:07.241Z,100213.19
2023-03-22T03:52:09.903Z,100205.13
2023-03-22T03:53:12.460Z,100212.06
2023-03-22T03:54:15.414Z,100205.13
2023-03-22T03:55:18.931Z,100206.94
2023-03-22T03:56:21.433Z,100206.09
2023-03-22T03:57:25.242Z,100210.63
2023-03-22T03:58:30.488Z,100212.41
2023-03-22T03:59:33.034Z,100211.47
2023-03-22T04:00:40.867Z,100211.47
2023-03-22T04:01:55.634Z,100215.97
2023-03-22T04:03:06.329Z,100208.78
2023-03-22T04:04:35.595Z,100200.00
2023-03-22T04:05:40.071Z,100191.94
2023-03-22T04:06:42.828Z,100191.94
2023-03-22T04:07:49.685Z,100185.72
2023-03-22T04:08:53.810Z,100182.91
2023-03-22T04:10:00.446Z,100195.63
2023-03-22T04:11:07.893Z,100194.63
2023-03-22T04:12:10.857Z,100195.47
2023-03-22T04:13:13.380Z,100201.84
2023-03-22T04:14:16.019Z,100202.69
2023-03-22T04:15:18.659Z,100196.47
2023-03-22T04:16:26.256Z,100193.78
2023-03-22T04:17:29.353Z,100191.09
2023-03-22T04:18:32.195Z,100192.09
2023-03-22T04:19:38.057Z,100190.25
2023-03-22T04:20:41.805Z,100194.78
2023-03-22T04:21:45.904Z,100190.41
2023-03-22T04:22:49.122Z,100196.75
2023-03-22T04:23:51.736Z,100197.59
2023-03-22T04:24:54.342Z,100198.44
2023-03-22T04:25:59.843Z,100197.59
2023-03-22T04:27:13.705Z,100195.91
2023-03-22T04:28:28.936Z,100196.75
2023-03-22T04:29:32.237Z,100196.75
2023-03-22T04:30:54.340Z,100203.97
2023-03-22T04:32:23.282Z,100194.22
2023-03-22T04:33:26.708Z,100196.06
2023-03-22T04:34:53.152Z,100202.13
2023-03-22T04:35:57.526Z,100203.81
2023-03-22T04:37:08.036Z,100204.81
2023-03-22T04:38:13.416Z,100204.81
2023-03-22T04:39:16.587Z,100200.44
2023-03-22T04:40:28.760Z,100203.13
2023-03-22T04:41:37.807Z,100196.91
2023-03-22T04:42:40.527Z,100203.97
2023-03-22T04:43:50.999Z,100201.41
2023-03-22T04:44:53.712Z,100198.75
2023-03-22T04:45:58.386Z,100192.50
2023-03-22T04:47:07.514Z,100197.84
2023-03-22T04:48:11.273Z,100198.00
2023-03-22T04:49:14.418Z,100198.00
2023-03-22T04:50:18.094Z,100199.69
2023-03-22T04:51:27.271Z,100192.63
2023-03-22T04:52:54.219Z,100198.00
2023-03-22T04:53:57.653Z,100194.47
2023-03-22T04:55:00.165Z,100199.00
2023-03-22T04:56:05.549Z,100199.84
2023-03-22T04:57:08.187Z,100196.16
2023-03-22T04:58:16.485Z,100200.84
2023-03-22T04:59:20.405Z,100197.31
2023-03-22T05:00:24.493Z,100203.50
2023-03-22T05:01:28.535Z,100199.28
2023-03-22T05:02:43.080Z,100206.34
2023-03-22T05:03:53.646Z,100200.13
2023-03-22T05:04:58.228Z,100200.13
2023-03-22T05:06:11.461Z,100207.31
2023-03-22T05:07:23.528Z,100208.19
2023-03-22T05:08:31.562Z,100207.19
2023-03-22T05:09:34.110Z,100209.88
2023-03-22T05:10:40.599Z,100204.66
2023-03-22T05:11:43.651Z,100216.22
2023-03-22T05:13:03.297Z,100211.69
2023-03-22T05:14:14.949Z,100217.22
2023-03-22T05:15:17.611Z,100228.78
2023-03-22T05:16:21.562Z,100231.19
2023-03-22T05:17:26.957Z,100227.78
2023-03-22T05:18:32.962Z,100232.03
2023-03-22T05:19:35.626Z,100235.56
2023-03-22T05:20:38.573Z,100234.56
2023-03-22T05:21:58.093Z,100227.66
2023-03-22T05:23:10.196Z,100229.09
2023-03-22T05:24:13.919Z,100228.34
2023-03-22T05:25:19.359Z,100220.19
2023-03-22T05:26:24.455Z,100216.53
2023-03-22T05:27:31.782Z,100219.22
2023-03-22T05:29:05.357Z,100227.97
2023-03-22T05:30:26.621Z,100234.16
2023-03-22T05:31:38.426Z,100232.34
2023-03-22T05:32:44.860Z,100222.44
2023-03-22T05:33:56.055Z,100233.19
2023-03-22T05:35:05.725Z,100225.97
2023-03-22T05:36:13.430Z,100226.81
2023-03-22T05:37:35.172Z,100229.66
2023-03-22T05:38:39.315Z,100233.19
2023-03-22T05:39:43.281Z,100229.66
2023-03-22T05:40:49.253Z,100227.56
2023-03-22T05:41:51.849Z,100236.47
2023-03-22T05:42:54.820Z,100228.66
2023-03-22T05:44:03.558Z,100233.19
2023-03-22T05:45:06.706Z,100234.88
2023-03-22T05:46:12.102Z,100226.97
2023-03-22T05:47:25.916Z,100230.50
2023-03-22T05:48:36.386Z,100228.66
2023-03-22T05:49:39.373Z,100234.88
2023-03-22T05:50:42.951Z,100234.88
2023-03-22T05:51:45.851Z,100231.34
2023-03-22T05:52:52.130Z,100235.03
2023-03-22T05:53:57.388Z,100241.22
2023-03-22T05:55:07.403Z,100243.91
2023-03-22T05:56:13.920Z,100240.38
2023-03-22T05:57:18.585Z,100233.31
2023-03-22T05:58:21.067Z,100229.66
2023-03-22T05:59:26.111Z,100231.34
2023-03-22T06:00:32.092Z,100230.78
2023-03-22T06:01:53.604Z,100242.22
2023-03-22T06:03:03.569Z,100247.72
2023-03-22T06:04:08.534Z,100255.78
2023-03-22T06:05:23.673Z,100249.56
2023-03-22T06:06:28.311Z,100248.56
2023-03-22T06:07:41.979Z,100251.13
2023-03-22T06:08:51.662Z,100240.38
2023-03-22T06:09:54.211Z,100244.06
2023-03-22T06:10:58.606Z,100240.88
2023-03-22T06:12:01.812Z,100248.09
2023-03-22T06:13:04.777Z,100250.50
2023-03-22T06:14:09.520Z,100250.34
2023-03-22T06:15:27.559Z,100250.94
2023-03-22T06:16:41.660Z,100258.16
2023-03-22T06:17:44.299Z,100249.25
2023-03-22T06:18:50.479Z,100261.69
2023-03-22T06:19:54.375Z,100256.31
2023-03-22T06:20:57.569Z,100250.94
2023-03-22T06:22:00.421Z,100250.94
2023-03-22T06:23:03.224Z,100251.09
2023-03-22T06:24:06.256Z,100257.31
2023-03-22T06:25:10.989Z,100254.47
2023-03-22T06:26:18.069Z,100257.03
2023-03-22T06:27:22.151Z,100255.19
2023-03-22T06:28:29.583Z,100251.66
2023-03-22T06:29:32.923Z,100262.38
2023-03-22T06:30:38.295Z,100261.41
2023-03-22T06:31:59.791Z,100262.38
2023-03-22T06:33:05.156Z,100260.84
2023-03-22T06:34:10.672Z,100265.22
2023-03-22T06:35:16.754Z,100262.66
2023-03-22T06:36:21.450Z,100265.50
2023-03-22T06:37:42.542Z,100255.63
2023-03-22T06:38:45.013Z,100255.63
2023-03-22T06:39:48.092Z,100255.63
2023-03-22T06:40:50.892Z,100251.09
2023-03-22T06:41:53.521Z,100243.06
2023-03-22T06:42:56.714Z,100244.03
2023-03-22T06:43:59.322Z,100251.25
2023-03-22T06:45:33.252Z,100257.44
2023-03-22T06:46:36.863Z,100266.34
2023-03-22T06:47:47.918Z,100276.09
2023-03-22T06:49:09.225Z,100278.63
2023-03-22T06:50:12.238Z,100274.25
2023-03-22T06:51:31.334Z,100275.25
2023-03-22T06:52:33.961Z,100276.22
2023-03-22T06:53:36.502Z,100278.91
2023-03-22T06:54:39.851Z,100278.06
2023-03-22T06:55:42.419Z,100277.19
2023-03-22T06:56:53.691Z,100278.91
2023-03-22T06:57:56.760Z,100272.69
2023-03-22T06:58:59.339Z,100273.53
2023-03-22T07:00:01.898Z,100269.03
2023-03-22T07:01:04.742Z,100266.44
2023-03-22T07:02:12.268Z,100267.34
2023-03-22T07:03:17.204Z,100271.72
2023-03-22T07:04:24.157Z,100269.03
2023-03-22T07:05:26.723Z,100269.88
2023-03-22T07:06:30.551Z,100272.56
2023-03-22T07:07:33.043Z,100276.94
2023-03-22T07:08:37.116Z,100282.28
2023-03-22T07:09:41.016Z,100282.28
2023-03-22T07:10:43.919Z,100283.16
2023-03-22T07:11:46.763Z,100287.53
2023-03-22T07:12:50.721Z,100283.00
2023-03-22T07:13:54.650Z,100286.53
2023-03-22T07:14:59.082Z,100284.69
2023-03-22T07:16:18.700Z,100281.91
2023-03-22T07:17:31.468Z,100280.91
2023-03-22T07:18:34.156Z,100279.94
2023-03-22T07:19:36.673Z,100275.53
2023-03-22T07:20:43.764Z,100282.47
2023-03-22T07:21:46.414Z,100288.69
2023-03-22T07:22:51.041Z,100285.84
2023-03-22T07:23:55.756Z,100294.75
2023-03-22T07:25:01.853Z,100295.59
2023-03-22T07:26:07.104Z,100299.03
2023-03-22T07:27:11.676Z,100295.38
2023-03-22T07:28:15.611Z,100293.41
2023-03-22T07:29:18.149Z,100288.16
2023-03-22T07:30:20.701Z,100279.97
2023-03-22T07:31:23.826Z,100289.63
2023-03-22T07:32:34.953Z,100288.63
2023-03-22T07:33:44.227Z,100289.31
2023-03-22T07:34:47.190Z,100286.50
2023-03-22T07:35:52.005Z,100287.34
2023-03-22T07:36:57.108Z,100286.34
2023-03-22T07:38:00.991Z,100285.38
2023-03-22T07:39:07.225Z,100277.19
2023-03-22T07:40:13.447Z,100278.03
2023-03-22T07:41:16.088Z,100272.38
2023-03-22T07:42:31.816Z,100285.81
2023-03-22T07:44:11.121Z,100291.78
2023-03-22T07:45:23.212Z,100290.63
2023-03-22T07:46:52.513Z,100281.72
2023-03-22T07:48:02.600Z,100285.13
2023-03-22T07:49:34.504Z,100284.97
2023-03-22T07:50:43.953Z,100287.41
2023-03-22T07:51:46.444Z,100287.13
2023-03-22T07:52:49.546Z,100286.13
2023-03-22T07:53:52.169Z,100281.63
2023-03-22T07:54:55.482Z,100279.78
2023-03-22T07:55:59.040Z,100269.91
2023-03-22T07:57:01.990Z,100267.06
2023-03-22T07:58:06.113Z,100263.53
2023-03-22T07:59:08.858Z,100265.22
2023-03-22T08:00:12.385Z,100266.09
2023-03-22T08:01:50.003Z,100272.03
2023-03-22T08:03:14.670Z,100272.03
2023-03-22T08:04:35.470Z,100270.91
2023-03-22T08:05:48.243Z,100272.59
2023-03-22T08:06:51.591Z,100268.91
2023-03-22T08:07:54.451Z,100278.50
2023-03-22T08:08:57.224Z,100274.97
2023-03-22T08:09:59.715Z,100277.56
2023-03-22T08:11:02.774Z,100280.09
2023-03-22T08:12:05.583Z,100272.88
2023-03-22T08:13:08.481Z,100279.09
2023-03-22T08:14:13.749Z,100284.19
2023-03-22T08:15:16.473Z,100284.19
2023-03-22T08:16:19.432Z,100297.50
2023-03-22T08:17:22.328Z,100299.34
2023-03-22T08:18:24.949Z,100300.88
2023-03-22T08:19:28.438Z,100294.66
2023-03-22T08:20:30.968Z,100300.03
2023-03-22T08:21:38.021Z,100299.03
2023-03-22T08:22:44.243Z,100290.97
2023-03-22T08:24:01.843Z,100290.84
2023-03-22T08:25:24.526Z,100292.69
2023-03-22T08:26:29.070Z,100290.84
2023-03-22T08:27:36.879Z,100297.06
2023-03-22T08:28:39.574Z,100292.41
2023-03-22T08:29:42.461Z,100288.75
2023-03-22T08:30:47.654Z,100297.78
2023-03-22T08:31:51.479Z,100290.44
2023-03-22T08:32:54.060Z,100299.34
2023-03-22T08:33:56.871Z,100300.19
2023-03-22T08:34:59.512Z,100297.63
2023-03-22T08:36:12.170Z,100299.34
2023-03-22T08:37:21.568Z,100299.34
2023-03-22T08:38:24.230Z,100299.19
2023-03-22T08:39:29.003Z,100294.66
2023-03-22T08:40:46.594Z,100298.19
2023-03-22T08:41:49.426Z,100296.34
2023-03-22T08:42:51.939Z,100294.50
2023-03-22T08:43:54.657Z,100294.50
2023-03-22T08:44:57.373Z,100293.56
2023-03-22T08:46:02.951Z,100284.63
2023-03-22T08:47:05.512Z,100285.34
2023-03-22T08:48:08.125Z,100289.88
2023-03-22T08:49:28.123Z,100286.19
2023-03-22T08:50:39.847Z,100285.34
2023-03-22T08:51:55.073Z,100288.88
2023-03-22T08:53:29.845Z,100294.25
2023-03-22T08:54:48.983Z,100295.09
2023-03-22T08:56:10.112Z,100295.09
2023-03-22T08:57:23.854Z,100300.31
2023-03-22T08:58:46.698Z,100298.47
2023-03-22T09:00:11.052Z,100292.25
2023-03-22T09:01:21.261Z,100294.94
2023-03-22T09:02:29.181Z,100298.47
2023-03-22T09:03:33.037Z,100299.31
2023-03-22T09:04:36.231Z,100293.97
2023-03-22T09:05:39.177Z,100298.34
2023-03-22T09:06:45.381Z,100297.50
2023-03-22T09:07:52.611Z,100306.41
2023-03-22T09:09:14.939Z,100298.34
2023-03-22T09:10:19.555Z,100298.22
2023-03-22T09:11:24.582Z,100307.13
2023-03-22T09:12:27.684Z,100300.03
2023-03-22T09:13:33.724Z,100298.22
2023-03-22T09:14:38.945Z,100304.56
2023-03-22T09:15:41.696Z,100300.03
2023-03-22T09:16:51.877Z,100295.53
2023-03-22T09:17:54.573Z,100298.22
2023-03-22T09:18:58.646Z,100288.31
2023-03-22T09:20:11.934Z,100291.00
2023-03-22T09:21:17.134Z,100288.31
2023-03-22T09:22:26.265Z,100288.16
2023-03-22T09:23:30.399Z,100285.63
2023-03-22T09:24:33.022Z,100291.84
2023-03-22T09:25:38.327Z,100288.16
2023-03-22T09:26:41.523Z,100286.47
2023-03-22T09:27:44.111Z,100285.63
2023-03-22T09:28:46.938Z,100284.63
2023-03-22T09:29:50.318Z,100291.00
2023-03-22T09:30:53.581Z,100286.47
2023-03-22T09:31:56.404Z,100282.94
2023-03-22T09:33:04.003Z,100285.63
2023-03-22T09:34:06.730Z,100280.25
2023-03-22T09:35:09.526Z,100279.13
2023-03-22T09:36:20.634Z,100282.81
2023-03-22T09:37:30.525Z,100285.47
2023-03-22T09:38:35.749Z,100289.03
2023-03-22T09:39:40.201Z,100286.34
2023-03-22T09:41:00.391Z,100279.97
2023-03-22T09:42:15.524Z,100271.91
2023-03-22T09:43:19.922Z,100276.44
2023-03-22T09:44:29.927Z,100290.72
2023-03-22T09:45:39.823Z,100276.56
2023-03-22T09:46:48.155Z,100278.28
2023-03-22T09:47:56.548Z,100284.50
2023-03-22T09:49:02.973Z,100272.91
2023-03-22T09:50:39.887Z,100275.44
2023-03-22T09:51:44.393Z,100277.28
2023-03-22T09:52:47.879Z,100268.38
2023-03-22T09:53:50.805Z,100272.75
2023-03-22T09:54:53.515Z,100275.44
2023-03-22T09:56:17.626Z,100276.28
2023-03-22T09:57:32.773Z,100278.00
2023-03-22T09:58:53.378Z,100280.81
2023-03-22T10:00:38.670Z,100275.31
2023-03-22T10:02:00.412Z,100277.16
2023-03-22T10:03:09.768Z,100275.44
2023-03-22T10:04:14.928Z,100270.91
2023-03-22T10:05:35.283Z,100276.16
2023-03-22T10:06:37.762Z,100271.78
2023-03-22T10:08:01.856Z,100268.09
2023-03-22T10:09:26.813Z,100275.44
2023-03-22T10:10:30.419Z,100274.59
2023-03-22T10:12:11.347Z,100276.28
2023-03-22T10:13:16.514Z,100271.78
2023-03-22T10:14:32.934Z,100276.28
2023-03-22T10:15:42.521Z,100276.28
2023-03-22T10:16:47.592Z,100277.16
2023-03-22T10:17:53.932Z,100268.22
2023-03-22T10:19:06.564Z,100265.69
2023-03-22T10:20:19.116Z,100269.94
2023-03-22T10:21:21.819Z,100270.91
2023-03-22T10:22:33.711Z,100261.88
2023-03-22T10:23:56.948Z,100260.16
2023-03-22T10:25:00.909Z,100266.41
2023-03-22T10:26:06.121Z,100267.25
2023-03-22T10:27:20.548Z,100266.41
2023-03-22T10:28:31.686Z,100262.72
2023-03-22T10:29:45.745Z,100265.41
2023-03-22T10:30:54.653Z,100269.84
2023-03-22T10:32:13.913Z,100263.56
2023-03-22T10:33:35.376Z,100269.84
2023-03-22T10:34:37.907Z,100266.25
2023-03-22T10:35:44.041Z,100274.31
2023-03-22T10:39:04.077Z,100271.63
2023-03-22T10:40:09.423Z,100273.38
2023-03-22T10:41:18.550Z,100264.31
2023-03-22T10:42:26.523Z,100267.00
2023-03-22T10:43:42.356Z,100261.63
2023-03-22T10:45:01.410Z,100267.00
2023-03-22T10:46:08.192Z,100267.00
2023-03-22T10:47:11.930Z,100267.00
2023-03-22T10:48:23.372Z,100262.47
2023-03-22T10:49:32.878Z,100264.16
2023-03-22T10:50:39.354Z,100265.16
2023-03-22T10:52:04.611Z,100261.63
2023-03-22T10:53:25.409Z,100265.16
2023-03-22T10:54:28.435Z,100259.09
2023-03-22T10:55:30.931Z,100264.16
2023-03-22T10:56:33.430Z,100266.84
2023-03-22T10:57:35.908Z,100264.00
2023-03-22T10:58:38.462Z,100261.47
2023-03-22T10:59:51.224Z,100262.31
2023-03-22T11:00:59.578Z,100255.09
2023-03-22T11:02:02.259Z,100262.31
2023-03-22T11:03:07.125Z,100267.53
2023-03-22T11:04:15.057Z,100257.63
2023-03-22T11:05:25.873Z,100255.81
2023-03-22T11:06:32.958Z,100253.13
2023-03-22T11:07:39.177Z,100256.66
2023-03-22T11:08:48.914Z,100250.31
2023-03-22T11:09:58.506Z,100249.31
2023-03-22T11:11:01.203Z,100251.16
2023-03-22T11:12:04.021Z,100247.47
2023-03-22T11:13:09.660Z,100242.09
2023-03-22T11:14:15.772Z,100241.09
2023-03-22T11:15:26.852Z,100240.81
2023-03-22T11:16:31.434Z,100238.09
2023-03-22T11:17:37.728Z,100234.47
2023-03-22T11:18:41.832Z,100226.25
2023-03-22T11:19:55.293Z,100227.94
2023-03-22T11:21:11.393Z,100224.25
2023-03-22T11:22:41.274Z,100225.94
2023-03-22T11:23:58.152Z,100219.88
2023-03-22T11:25:01.596Z,100221.41
2023-03-22T11:26:14.819Z,100215.88
2023-03-22T11:27:26.326Z,100224.84
2023-03-22T11:28:36.295Z,100215.78
2023-03-22T11:29:47.992Z,100217.47
2023-03-22T11:31:12.039Z,100215.63
2023-03-22T11:32:38.405Z,100212.78
2023-03-22T11:33:55.865Z,100219.00
2023-03-22T11:35:13.592Z,100220.53
2023-03-22T11:36:18.957Z,100213.34
2023-03-22T11:37:22.463Z,100212.19
2023-03-22T11:38:32.610Z,100211.06
2023-03-22T11:39:35.086Z,100208.09
2023-03-22T11:40:48.629Z,100208.94
2023-03-22T11:41:52.584Z,100197.03
2023-03-22T11:43:09.974Z,100203.81
2023-03-22T11:44:16.736Z,100203.81
2023-03-22T11:45:36.211Z,100203.66
2023-03-22T11:46:40.154Z,100198.13
2023-03-22T11:47:43.142Z,100199.84
2023-03-22T11:48:48.595Z,100202.38
2023-03-22T11:49:54.613Z,100204.94
2023-03-22T11:51:25.790Z,100208.31
2023-03-22T11:52:28.300Z,100202.63
2023-03-22T11:53:35.582Z,100193.72
2023-03-22T11:54:40.300Z,100197.97
2023-03-22T11:55:43.765Z,100202.34
2023-03-22T11:56:50.389Z,100198.66
2023-03-22T11:57:55.979Z,100200.50
2023-03-22T11:59:01.688Z,100204.88
2023-03-22T12:00:26.896Z,100192.13
2023-03-22T12:02:00.474Z,100196.06
2023-03-22T12:03:10.078Z,100201.47
2023-03-22T12:04:20.297Z,100199.34
2023-03-22T12:05:27.345Z,100195.63
2023-03-22T12:06:35.498Z,100201.72
2023-03-22T12:07:41.202Z,100200.88
2023-03-22T12:08:53.969Z,100199.72
2023-03-22T12:10:21.262Z,100202.28
2023-03-22T12:11:33.657Z,100204.69
2023-03-22T12:12:43.063Z,100201.16
2023-03-22T12:13:54.521Z,100201.84
2023-03-22T12:15:21.116Z,100203.38
2023-03-22T12:16:30.825Z,100200.84
2023-03-22T12:17:48.739Z,100199.72
2023-03-22T12:19:02.319Z,100195.03
2023-03-22T12:20:31.525Z,100198.41
2023-03-22T12:21:36.809Z,100188.50
2023-03-22T12:22:45.715Z,100192.88
2023-03-22T12:23:48.288Z,100197.25
2023-03-22T12:24:50.847Z,100197.25
2023-03-22T12:26:07.178Z,100195.56
2023-03-22T12:27:30.758Z,100191.75
2023-03-22T12:28:41.281Z,100187.38
2023-03-22T12:29:52.601Z,100194.44
2023-03-22T12:30:57.819Z,100187.19
2023-03-22T12:32:09.802Z,100186.88
2023-03-22T12:33:43.192Z,100191.16
2023-03-22T12:34:50.889Z,100185.59
2023-03-22T12:36:01.575Z,100192.53
2023-03-22T12:37:09.297Z,100187.97
2023-03-22T12:38:27.991Z,100188.53
2023-03-22T12:40:08.520Z,100191.91
2023-03-22T12:41:39.091Z,100188.91
2023-03-22T12:42:55.464Z,100188.78
2023-03-22T12:44:18.412Z,100188.78
2023-03-22T12:45:26.470Z,100186.78
2023-03-22T12:46:35.572Z,100188.31
2023-03-22T12:47:51.442Z,100180.91
2023-03-22T12:49:17.205Z,100187.19
2023-03-22T12:50:21.751Z,100173.72
2023-03-22T12:51:24.546Z,100173.41
2023-03-22T12:52:37.697Z,100183.00
2023-03-22T12:53:56.822Z,100171.22
2023-03-22T12:55:01.813Z,100180.19
2023-03-22T12:56:05.057Z,100178.19
2023-03-22T12:57:09.552Z,100171.22
2023-03-22T12:58:20.866Z,100172.94
2023-03-22T12:59:28.937Z,100169.09
2023-03-22T13:00:41.436Z,100164.56
2023-03-22T13:02:01.453Z,100161.53
2023-03-22T13:03:20.027Z,100155.31
2023-03-22T13:04:27.537Z,100150.47
2023-03-22T13:05:33.907Z,100152.16
2023-03-22T13:06:45.489Z,100152.16
2023-03-22T13:07:47.908Z,100142.25
2023-03-22T13:09:13.157Z,100142.41
2023-03-22T13:10:31.408Z,100140.41